Bookmark and Share
Track history (hours):
 

Adriatic Sea

More information available from US FCC via Universal Licensing System and Coast Guard Vessel Documentation Center.

Last reported at 2014-Apr-24 01:27 UTC. Time now 2014-Apr-24 02:08 UTC.
Position N 48°44' W 122°32'.

Length 42 m; draft 4.9 m.

Type: Tug. MMSI: 366910890.

NotesDate/timePositionNaut miles runAvg speedWind from/ knotsBaromVisibWave heightAir tempDewpointWater temp
2014-Apr-24 01:27N 48°44' W 122°32'0 0.0
2014-Apr-24 00:15N 48°44' W 122°32'0 0.0
2014-Apr-23 23:33N 48°44' W 122°32'0 0.0
2014-Apr-23 22:29N 48°44' W 122°32'0 0.0
2014-Apr-23 21:19N 48°44' W 122°32'0 0.1
2014-Apr-23 20:33N 48°44' W 122°32'0 0.0
2014-Apr-23 19:33N 48°44' W 122°32'0 0.0
2014-Apr-23 18:31N 48°44' W 122°32'0 0.0
2014-Apr-23 17:29N 48°44' W 122°32'0 0.0
2014-Apr-23 16:33N 48°44' W 122°32'0 0.0
2014-Apr-23 15:33N 48°44' W 122°32'0 0.0
2014-Apr-23 14:33N 48°44' W 122°32'0 0.0
2014-Apr-23 13:33N 48°44' W 122°32'0 0.0
2014-Apr-23 12:31N 48°44' W 122°32'3 2.9
2014-Apr-23 11:33N 48°41' W 122°33'7 6.8
2014-Apr-23 10:33N 48°36' W 122°40'6 6.4
2014-Apr-23 09:33N 48°30' W 122°43'8 7.8
2014-Apr-23 08:33N 48°23' W 122°50'8 8.0
2014-Apr-23 07:33N 48°19' W 122°60'9 8.2
2014-Apr-23 06:30N 48°14' W 123°11'8 8.5
2014-Apr-23 05:33N 48°12' W 123°22'10 9.0
2014-Apr-23 04:23N 48°12' W 123°38'8 9.5
2014-Apr-23 03:33N 48°12' W 123°50'9 8.7
2014-Apr-23 02:33N 48°15' W 124°03'8 8.4
2014-Apr-23 01:33N 48°18' W 124°14'7 7.2
2014-Apr-23 00:33N 48°21' W 124°24'7 7.4
2014-Apr-22 23:33N 48°24' W 124°34'6 6.4
2014-Apr-22 22:33N 48°27' W 124°43'6 6.2
2014-Apr-22 21:33N 48°27' W 124°52'98 6.5
2014-Apr-22 06:33N 46°49' W 124°56'7 6.9
2014-Apr-22 05:32N 46°42' W 124°55'7 6.8
2014-Apr-22 04:33N 46°35' W 124°55'7 6.7
2014-Apr-22 03:33N 46°29' W 124°54'7 6.8
2014-Apr-22 02:33N 46°22' W 124°53'7 6.7
2014-Apr-22 01:33N 46°15' W 124°53'7 6.9
2014-Apr-22 00:33N 46°08' W 124°52'7 6.8
2014-Apr-21 23:33N 46°01' W 124°51'7 6.9
2014-Apr-21 22:33N 45°54' W 124°51'7 7.0
2014-Apr-21 21:33N 45°48' W 124°51'7 6.8
2014-Apr-21 20:31N 45°40' W 124°51'  
2014-Apr-19 10:33N 39°18' W 124°28'8 6.5
2014-Apr-19 09:16N 39°11' W 124°25'7 6.2
2014-Apr-19 08:05N 39°04' W 124°21'6 6.3
2014-Apr-19 07:03N 38°58' W 124°19'9 6.3
2014-Apr-19 05:33N 38°49' W 124°15'6 5.9
2014-Apr-19 04:33N 38°43' W 124°12'6 5.7
2014-Apr-19 03:32N 38°37' W 124°10'6 5.5
2014-Apr-19 02:24N 38°32' W 124°07'4 5.2
2014-Apr-19 01:33N 38°27' W 124°06'5 4.9
2014-Apr-19 00:33N 38°23' W 124°03'5 4.9
2014-Apr-18 23:32N 38°18' W 124°01'5 4.9
2014-Apr-18 22:33N 38°14' W 123°59'12 4.8
2014-Apr-18 20:05N 38°02' W 123°54'87 4.9
2014-Apr-18 02:20N 36°42' W 123°14'3 4.2
2014-Apr-18 01:33N 36°39' W 123°12'4 4.2
2014-Apr-18 00:33N 36°35' W 123°10'5 4.2
2014-Apr-17 23:26N 36°31' W 123°07'28 4.0
2014-Apr-17 16:33N 36°06' W 122°53'5 4.2
2014-Apr-17 15:18N 36°02' W 122°48'4 4.5
2014-Apr-17 14:30N 35°59' W 122°45'10 4.6
2014-Apr-17 12:24N 35°52' W 122°37'5 4.4
2014-Apr-17 11:09N 35°49' W 122°32'4 4.5
2014-Apr-17 10:11N 35°46' W 122°28'7 4.3
2014-Apr-17 08:32N 35°41' W 122°22'4 4.4
2014-Apr-17 07:33N 35°38' W 122°18'14 4.4
2014-Apr-17 04:27N 35°28' W 122°07'131 5.4
2014-Apr-16 04:24N 34°14' W 119°55'14 7.6
2014-Apr-16 02:33N 34°10' W 119°39'7 7.3
2014-Apr-16 01:33N 34°08' W 119°31'7 7.1
2014-Apr-16 00:33N 34°06' W 119°22'8 7.7
2014-Apr-15 23:33N 34°04' W 119°13'7 7.5
2014-Apr-15 22:33N 34°00' W 119°06'7 7.4
2014-Apr-15 21:33N 33°56' W 118°58'8 7.8
2014-Apr-15 20:33N 33°53' W 118°50'8 8.0
2014-Apr-15 19:33N 33°49' W 118°41'8 8.1
2014-Apr-15 18:33N 33°44' W 118°33'12 8.3
2014-Apr-15 17:10N 33°39' W 118°21'5 8.1
2014-Apr-15 16:33N 33°39' W 118°15'6 5.5
2014-Apr-15 15:30N 33°44' W 118°12'2 1.8
2014-Apr-15 14:33N 33°44' W 118°14'0 0.0
2014-Apr-15 12:34N 33°44' W 118°14'0 0.0
2014-Apr-15 10:34N 33°44' W 118°14'0 0.1
2014-Apr-15 09:34N 33°44' W 118°14'0 0.0
2014-Apr-15 08:34N 33°44' W 118°14'0 0.1
2014-Apr-15 07:34N 33°44' W 118°14'0 0.0
2014-Apr-15 06:34N 33°44' W 118°14'0 0.1
2014-Apr-15 05:34N 33°44' W 118°14'2 0.8
2014-Apr-15 02:34N 33°45' W 118°16'0 0.0
2014-Apr-15 01:34N 33°45' W 118°16'0 0.0
2014-Apr-15 00:34N 33°45' W 118°16'0 0.0
2014-Apr-14 23:34N 33°45' W 118°16'0 0.0
2014-Apr-14 22:34N 33°45' W 118°16'2 1.6
2014-Apr-14 21:34N 33°44' W 118°16'0 0.0
2014-Apr-14 20:34N 33°44' W 118°16'0 0.0
2014-Apr-14 19:34N 33°44' W 118°16'0 0.0
2014-Apr-14 18:34N 33°44' W 118°16'0 0.0
2014-Apr-14 17:33N 33°44' W 118°16'2 1.5
2014-Apr-14 16:31N 33°45' W 118°16'0 0.0
2014-Apr-14 15:33N 33°45' W 118°16'  

Dump ship's entire track history

sailing weather and tide predictions

Adriatic Sea — WDB5553 — position and weather